createdAt,value
2019-03-04T00:00:46.749Z,72.64
2019-03-04T00:01:47.332Z,72.78
2019-03-04T00:02:47.989Z,72.30
2019-03-04T00:03:48.308Z,73.17
2019-03-04T00:04:48.795Z,73.09
2019-03-04T00:05:49.258Z,73.32
2019-03-04T00:06:49.824Z,72.13
2019-03-04T00:07:50.330Z,72.29
2019-03-04T00:08:50.999Z,72.76
2019-03-04T00:09:51.592Z,72.74
2019-03-04T00:10:52.208Z,72.53
2019-03-04T00:11:52.864Z,72.63
2019-03-04T00:12:53.429Z,72.54
2019-03-04T00:13:54.005Z,72.66
2019-03-04T00:14:54.525Z,72.61
2019-03-04T00:15:55.064Z,71.68
2019-03-04T00:16:55.623Z,71.31
2019-03-04T00:17:56.139Z,71.81
2019-03-04T00:18:56.599Z,72.10
2019-03-04T00:19:57.445Z,72.20
2019-03-04T00:20:58.184Z,72.35
2019-03-04T00:21:58.734Z,71.13
2019-03-04T00:22:59.187Z,70.31
2019-03-04T00:23:59.685Z,70.34
2019-03-04T00:25:00.226Z,70.36
2019-03-04T00:26:05.936Z,69.51
2019-03-04T00:27:01.161Z,69.81
2019-03-04T00:28:01.656Z,69.23
2019-03-04T00:29:02.157Z,68.70
2019-03-04T00:30:02.728Z,68.70
2019-03-04T00:31:03.314Z,68.40
2019-03-04T00:32:03.737Z,68.12
2019-03-04T00:33:04.339Z,68.06
2019-03-04T00:34:04.869Z,68.06
2019-03-04T00:35:05.511Z,67.95
2019-03-04T00:36:05.965Z,67.67
2019-03-04T00:37:06.472Z,67.32
2019-03-04T00:38:06.828Z,67.72
2019-03-04T00:39:07.296Z,67.77
2019-03-04T00:40:07.717Z,67.65
2019-03-04T00:40:16.868Z,67.96
2019-03-04T00:41:17.383Z,67.87
2019-03-04T00:42:18.430Z,67.74
2019-03-04T00:43:18.984Z,67.98
2019-03-04T00:44:20.570Z,68.18
2019-03-04T00:45:20.088Z,68.45
2019-03-04T00:46:20.811Z,68.63
2019-03-04T00:47:21.410Z,68.85
2019-03-04T00:48:20.955Z,69.24
2019-03-04T00:49:22.795Z,69.62
2019-03-04T00:50:23.431Z,69.73
2019-03-04T00:51:24.063Z,70.19
2019-03-04T00:52:24.915Z,70.71
2019-03-04T00:53:25.425Z,71.01
2019-03-04T00:54:26.011Z,71.52
2019-03-04T00:55:26.096Z,71.76
2019-03-04T00:56:26.590Z,72.19
2019-03-04T00:57:27.178Z,72.74
2019-03-04T00:58:28.727Z,73.13
2019-03-04T00:59:28.182Z,73.22
2019-03-04T01:00:28.700Z,73.40
2019-03-04T01:01:29.319Z,73.76
2019-03-04T01:02:29.879Z,73.99
2019-03-04T01:03:30.670Z,74.52
2019-03-04T01:04:31.374Z,74.81
2019-03-04T01:05:31.888Z,75.06
2019-03-04T01:06:32.536Z,75.34
2019-03-04T01:07:33.053Z,75.59
2019-03-04T01:08:33.220Z,75.82
2019-03-04T01:09:33.730Z,76.09
2019-03-04T01:10:34.271Z,76.19
2019-03-04T01:11:34.817Z,76.38
2019-03-04T01:12:35.559Z,76.88
2019-03-04T01:13:36.241Z,77.23
2019-03-04T01:14:36.859Z,77.42
2019-03-04T01:15:37.283Z,77.63
2019-03-04T01:16:36.675Z,78.04
2019-03-04T01:17:38.152Z,78.37
2019-03-04T01:18:38.755Z,78.41
2019-03-04T01:19:39.274Z,78.72
2019-03-04T01:20:39.995Z,79.04
2019-03-04T01:21:40.991Z,79.33
2019-03-04T01:22:41.402Z,79.23
2019-03-04T01:23:41.977Z,79.57
2019-03-04T01:24:42.627Z,79.54
2019-03-04T01:25:43.458Z,79.75
2019-03-04T01:25:52.026Z,80.04
2019-03-04T01:26:53.431Z,80.05
2019-03-04T01:27:53.848Z,80.18
2019-03-04T01:28:54.403Z,80.32
2019-03-04T01:29:54.919Z,80.54
2019-03-04T01:30:55.736Z,80.60
2019-03-04T01:31:56.267Z,80.59
2019-03-04T01:32:57.192Z,80.75
2019-03-04T01:33:57.700Z,80.77
2019-03-04T01:34:58.232Z,80.82
2019-03-04T01:35:58.648Z,80.86
2019-03-04T01:36:59.099Z,80.92
2019-03-04T01:37:59.561Z,81.02
2019-03-04T01:39:00.028Z,81.08
2019-03-04T01:40:00.522Z,81.27
2019-03-04T01:41:00.861Z,81.19
2019-03-04T01:42:01.633Z,81.47
2019-03-04T01:43:02.147Z,81.26
2019-03-04T01:44:02.931Z,81.06
2019-03-04T01:45:03.534Z,81.08
2019-03-04T01:46:04.037Z,80.96
2019-03-04T01:47:04.388Z,80.95
2019-03-04T01:48:04.930Z,81.00
2019-03-04T01:49:04.960Z,81.08
2019-03-04T01:50:05.402Z,81.17
2019-03-04T01:51:05.888Z,81.28
2019-03-04T01:52:06.331Z,81.36
2019-03-04T01:53:07.115Z,81.71
2019-03-04T01:54:08.096Z,81.47
2019-03-04T01:55:08.583Z,81.90
2019-03-04T01:56:09.134Z,82.02
2019-03-04T01:57:09.689Z,82.14
2019-03-04T01:58:10.184Z,82.12
2019-03-04T01:59:10.947Z,82.55
2019-03-04T02:00:11.359Z,82.85
2019-03-04T02:01:10.910Z,82.75
2019-03-04T02:02:12.398Z,83.04
2019-03-04T02:03:12.923Z,83.21
2019-03-04T02:04:13.783Z,83.16
2019-03-04T02:05:14.300Z,83.48
2019-03-04T02:06:14.862Z,83.59
2019-03-04T02:07:15.657Z,83.69
2019-03-04T02:08:16.520Z,83.71
2019-03-04T02:09:17.175Z,83.62
2019-03-04T02:10:17.771Z,83.71
2019-03-04T02:10:26.363Z,83.82
2019-03-04T02:11:27.431Z,83.83
2019-03-04T02:12:28.221Z,83.86
2019-03-04T02:13:28.916Z,83.82
2019-03-04T02:14:29.334Z,84.04
2019-03-04T02:15:29.734Z,84.09
2019-03-04T02:16:30.231Z,84.33
2019-03-04T02:17:30.811Z,84.12
2019-03-04T02:18:31.343Z,83.98
2019-03-04T02:19:31.803Z,84.00
2019-03-04T02:20:32.550Z,84.02
2019-03-04T02:21:33.480Z,83.79
2019-03-04T02:22:34.041Z,83.83
2019-03-04T02:23:34.714Z,84.03
2019-03-04T02:24:35.646Z,84.04
2019-03-04T02:25:36.381Z,84.00
2019-03-04T02:26:36.128Z,83.96
2019-03-04T02:27:37.154Z,83.92
2019-03-04T02:28:37.721Z,84.08
2019-03-04T02:29:38.393Z,84.29
2019-03-04T02:30:39.082Z,84.32
2019-03-04T02:31:39.759Z,84.20
2019-03-04T02:32:40.646Z,84.31
2019-03-04T02:33:41.230Z,84.17
2019-03-04T02:34:41.016Z,83.90
2019-03-04T02:35:42.558Z,83.85
2019-03-04T02:36:43.284Z,83.89
2019-03-04T02:37:44.108Z,83.97
2019-03-04T02:38:44.588Z,83.70
2019-03-04T02:39:45.409Z,84.00
2019-03-04T02:40:46.019Z,83.98
2019-03-04T02:41:46.117Z,84.01
2019-03-04T02:42:46.786Z,83.98
2019-03-04T02:43:47.304Z,84.00
2019-03-04T02:44:47.813Z,84.07
2019-03-04T02:45:48.360Z,83.95
2019-03-04T02:46:49.072Z,83.89
2019-03-04T02:47:49.650Z,84.08
2019-03-04T02:48:50.208Z,83.95
2019-03-04T02:49:50.800Z,83.86
2019-03-04T02:50:51.434Z,83.85
2019-03-04T02:51:52.052Z,83.77
2019-03-04T02:52:52.612Z,83.52
2019-03-04T02:53:53.155Z,83.65
2019-03-04T02:54:53.874Z,83.48
2019-03-04T02:55:02.418Z,83.62
2019-03-04T02:56:03.770Z,83.67
2019-03-04T02:57:04.203Z,83.45
2019-03-04T02:58:04.736Z,83.57
2019-03-04T02:59:05.202Z,83.58
2019-03-04T03:00:05.666Z,83.73
2019-03-04T03:01:06.159Z,83.79
2019-03-04T03:02:06.885Z,83.91
2019-03-04T03:03:07.462Z,83.89
2019-03-04T03:04:08.068Z,83.97
2019-03-04T03:05:08.645Z,83.73
2019-03-04T03:06:09.225Z,83.65
2019-03-04T03:07:10.138Z,83.61
2019-03-04T03:08:10.683Z,83.64
2019-03-04T03:09:11.179Z,83.51
2019-03-04T03:10:11.696Z,83.70
2019-03-04T03:11:12.498Z,83.63
2019-03-04T03:12:12.989Z,83.73
2019-03-04T03:13:13.084Z,83.63
2019-03-04T03:14:12.666Z,83.82
2019-03-04T03:15:13.932Z,83.79
2019-03-04T03:16:13.686Z,83.83
2019-03-04T03:17:15.203Z,83.58
2019-03-04T03:18:15.630Z,83.36
2019-03-04T03:19:15.215Z,83.13
2019-03-04T03:20:16.870Z,82.97
2019-03-04T03:21:17.002Z,83.11
2019-03-04T03:22:16.670Z,83.37
2019-03-04T03:23:18.085Z,83.36
2019-03-04T03:24:18.511Z,83.55
2019-03-04T03:25:19.064Z,83.59
2019-03-04T03:26:19.535Z,83.95
2019-03-04T03:27:20.068Z,84.27
2019-03-04T03:28:20.510Z,84.07
2019-03-04T03:29:21.034Z,83.97
2019-03-04T03:30:21.792Z,83.76
2019-03-04T03:31:21.234Z,83.77
2019-03-04T03:32:21.723Z,83.58
2019-03-04T03:33:22.159Z,83.87
2019-03-04T03:34:23.647Z,84.46
2019-03-04T03:35:24.063Z,84.38
2019-03-04T03:36:24.569Z,84.24
2019-03-04T03:37:24.979Z,84.09
2019-03-04T03:38:25.658Z,84.39
2019-03-04T03:39:26.347Z,83.94
2019-03-04T03:40:26.986Z,84.07
2019-03-04T03:41:27.728Z,84.16
2019-03-04T03:42:28.257Z,84.47
2019-03-04T03:42:36.809Z,84.21
2019-03-04T03:43:38.307Z,84.20
2019-03-04T03:44:38.929Z,84.02
2019-03-04T03:45:39.466Z,83.84
2019-03-04T03:46:39.970Z,84.21
2019-03-04T03:47:40.498Z,83.86
2019-03-04T03:48:41.096Z,83.94
2019-03-04T03:49:41.542Z,83.80
2019-03-04T03:50:41.955Z,83.81
2019-03-04T03:51:42.461Z,83.70
2019-03-04T03:52:42.936Z,83.48
2019-03-04T03:53:43.392Z,83.20
2019-03-04T03:54:43.947Z,83.46
2019-03-04T03:55:44.579Z,83.11
2019-03-04T03:56:45.027Z,82.84
2019-03-04T03:57:45.773Z,82.76
2019-03-04T03:58:46.254Z,82.87
2019-03-04T03:59:46.700Z,82.89
2019-03-04T04:00:47.119Z,82.61
2019-03-04T04:01:47.603Z,82.49
2019-03-04T04:02:48.069Z,82.36
2019-03-04T04:03:48.322Z,82.19
2019-03-04T04:04:48.860Z,82.04
2019-03-04T04:05:49.465Z,81.87
2019-03-04T04:06:50.130Z,81.71
2019-03-04T04:07:50.779Z,81.70
2019-03-04T04:08:50.314Z,81.79
2019-03-04T04:09:51.909Z,81.69
2019-03-04T04:10:52.466Z,81.70
2019-03-04T04:11:52.935Z,81.73
2019-03-04T04:12:53.453Z,81.58
2019-03-04T04:13:53.900Z,81.69
2019-03-04T04:14:54.415Z,81.72
2019-03-04T04:15:55.022Z,81.82
2019-03-04T04:16:55.644Z,81.82
2019-03-04T04:17:56.182Z,81.89
2019-03-04T04:18:56.656Z,81.85
2019-03-04T04:19:57.023Z,81.94
2019-03-04T04:20:57.576Z,81.94
2019-03-04T04:21:58.148Z,81.85
2019-03-04T04:22:58.682Z,81.63
2019-03-04T04:23:59.204Z,81.67
2019-03-04T04:24:59.776Z,81.74
2019-03-04T04:25:08.322Z,81.63
2019-03-04T04:26:09.737Z,81.65
2019-03-04T04:27:10.260Z,81.82
2019-03-04T04:28:10.798Z,81.55
2019-03-04T04:29:11.227Z,81.74
2019-03-04T04:30:11.903Z,81.83
2019-03-04T04:31:12.393Z,82.02
2019-03-04T04:32:13.257Z,82.06
2019-03-04T04:33:13.757Z,82.31
2019-03-04T04:34:15.381Z,82.47
2019-03-04T04:35:15.164Z,82.34
2019-03-04T04:36:15.686Z,82.41
2019-03-04T04:37:16.079Z,82.44
2019-03-04T04:38:16.575Z,82.75
2019-03-04T04:39:17.076Z,82.80
2019-03-04T04:40:17.715Z,82.73
2019-03-04T04:41:18.275Z,83.04
2019-03-04T04:42:18.879Z,83.17
2019-03-04T04:43:18.982Z,83.37
2019-03-04T04:44:19.626Z,83.49
2019-03-04T04:45:20.179Z,83.58
2019-03-04T04:46:20.256Z,83.75
2019-03-04T04:47:20.753Z,83.81
2019-03-04T04:48:21.337Z,83.70
2019-03-04T04:49:21.962Z,83.59
2019-03-04T04:50:22.528Z,83.61
2019-03-04T04:51:23.049Z,83.93
2019-03-04T04:52:23.834Z,82.99
2019-03-04T04:53:24.521Z,83.01
2019-03-04T04:54:25.174Z,83.04
2019-03-04T04:55:25.787Z,83.68
2019-03-04T04:56:26.369Z,83.79
2019-03-04T04:57:27.313Z,82.71
2019-03-04T04:58:27.620Z,82.18
2019-03-04T04:59:28.092Z,82.14
2019-03-04T05:00:28.673Z,81.77
2019-03-04T05:01:29.309Z,82.30
2019-03-04T05:02:30.043Z,82.34
2019-03-04T05:03:30.687Z,82.04
2019-03-04T05:04:31.419Z,82.35
2019-03-04T05:05:32.112Z,82.32
2019-03-04T05:06:32.650Z,81.70
2019-03-04T05:07:33.086Z,81.68
2019-03-04T05:07:42.163Z,82.16
2019-03-04T05:08:43.559Z,82.31
2019-03-04T05:09:44.098Z,82.99
2019-03-04T05:10:44.656Z,82.27
2019-03-04T05:11:45.056Z,82.85
2019-03-04T05:12:45.694Z,83.13
2019-03-04T05:13:46.329Z,83.65
2019-03-04T05:14:46.867Z,82.67
2019-03-04T05:15:47.335Z,82.47
2019-03-04T05:16:47.887Z,82.18
2019-03-04T05:17:48.457Z,82.09
2019-03-04T05:18:49.300Z,82.88
2019-03-04T05:19:49.403Z,82.26
2019-03-04T05:20:48.864Z,81.13
2019-03-04T05:21:50.572Z,81.74
2019-03-04T05:22:51.170Z,81.90
2019-03-04T05:23:51.707Z,81.39
2019-03-04T05:24:52.166Z,80.64
2019-03-04T05:25:53.111Z,79.19
2019-03-04T05:26:53.698Z,79.22
2019-03-04T05:27:54.419Z,78.68
2019-03-04T05:28:54.516Z,78.38
2019-03-04T05:29:55.091Z,78.67
2019-03-04T05:30:55.797Z,78.04
2019-03-04T05:31:55.951Z,78.41
2019-03-04T05:32:56.533Z,77.73
2019-03-04T05:33:56.752Z,79.08
2019-03-04T05:34:55.736Z,79.75
2019-03-04T05:35:56.278Z,79.70
2019-03-04T05:36:57.963Z,79.41
2019-03-04T05:38:02.359Z,79.10
2019-03-04T05:38:59.176Z,78.81
2019-03-04T05:39:59.246Z,79.15
2019-03-04T05:41:00.013Z,79.81
2019-03-04T05:42:00.643Z,79.80
2019-03-04T05:43:01.591Z,79.40
2019-03-04T05:44:01.811Z,79.20
2019-03-04T05:45:02.426Z,78.86
2019-03-04T05:46:03.114Z,78.96
2019-03-04T05:47:03.674Z,78.86
2019-03-04T05:48:04.595Z,78.68
2019-03-04T05:49:05.630Z,79.31
2019-03-04T05:50:05.226Z,78.98
2019-03-04T05:51:05.836Z,79.46
2019-03-04T05:52:06.426Z,79.52
2019-03-04T05:53:07.006Z,79.95
2019-03-04T05:53:17.614Z,79.00
2019-03-04T05:54:18.487Z,79.24
2019-03-04T05:55:20.146Z,79.12
2019-03-04T05:56:20.763Z,79.33
2019-03-04T05:57:21.316Z,78.41
2019-03-04T05:58:21.817Z,78.71
2019-03-04T05:59:21.233Z,79.13
2019-03-04T06:00:22.787Z,77.90
2019-03-04T06:01:23.481Z,77.56
2019-03-04T06:02:23.228Z,78.48
2019-03-04T06:03:24.856Z,79.08
2019-03-04T06:04:25.550Z,78.65
2019-03-04T06:05:26.153Z,77.87
2019-03-04T06:06:26.904Z,77.68
2019-03-04T06:07:27.463Z,76.71
2019-03-04T06:08:28.013Z,77.21
2019-03-04T06:09:27.886Z,77.09
2019-03-04T06:10:29.411Z,77.16
2019-03-04T06:11:30.021Z,76.81
2019-03-04T06:12:30.371Z,77.11
2019-03-04T06:13:30.967Z,76.94
2019-03-04T06:14:31.466Z,76.15
2019-03-04T06:15:31.924Z,76.39
2019-03-04T06:16:31.750Z,75.55
2019-03-04T06:17:33.329Z,75.55
2019-03-04T06:18:34.073Z,75.61
2019-03-04T06:19:35.173Z,75.33
2019-03-04T06:20:35.867Z,75.03
2019-03-04T06:21:35.799Z,75.33
2019-03-04T06:22:36.615Z,75.28
2019-03-04T06:23:36.947Z,75.68
2019-03-04T06:24:38.521Z,74.72
2019-03-04T06:25:39.427Z,74.57
2019-03-04T06:26:40.175Z,74.26
2019-03-04T06:27:41.121Z,74.19
2019-03-04T06:28:41.676Z,75.00
2019-03-04T06:29:42.345Z,74.25
2019-03-04T06:30:42.975Z,74.56
2019-03-04T06:31:43.109Z,74.86
2019-03-04T06:32:43.805Z,75.05
2019-03-04T06:33:43.643Z,74.63
2019-03-04T06:34:45.582Z,74.14
2019-03-04T06:35:45.869Z,74.42
2019-03-04T06:36:46.619Z,73.99
2019-03-04T06:37:46.418Z,73.62
2019-03-04T06:38:47.929Z,74.42
2019-03-04T06:39:48.272Z,73.67
2019-03-04T06:40:48.964Z,73.73
2019-03-04T06:41:49.793Z,73.39
2019-03-04T06:42:50.316Z,73.38
2019-03-04T06:43:50.949Z,73.75
2019-03-04T06:43:59.512Z,73.39
2019-03-04T06:45:00.943Z,73.39
2019-03-04T06:46:01.616Z,73.36
2019-03-04T06:47:02.169Z,73.87
2019-03-04T06:48:02.717Z,73.09
2019-03-04T06:49:03.390Z,73.42
2019-03-04T06:50:03.932Z,73.75
2019-03-04T06:51:04.427Z,72.99
2019-03-04T06:52:04.959Z,72.61
2019-03-04T06:53:05.744Z,72.91
2019-03-04T06:54:06.192Z,73.20
2019-03-04T06:55:06.775Z,72.07
2019-03-04T06:56:07.251Z,72.44
2019-03-04T06:57:07.681Z,72.62
2019-03-04T06:58:07.161Z,72.85
2019-03-04T06:59:08.538Z,72.63
2019-03-04T07:00:08.895Z,72.78
2019-03-04T07:01:09.534Z,71.96
2019-03-04T07:02:09.527Z,72.17
2019-03-04T07:03:10.104Z,72.34
2019-03-04T07:04:10.746Z,72.37
2019-03-04T07:05:11.351Z,71.46
2019-03-04T07:06:11.933Z,71.76
2019-03-04T07:07:12.476Z,71.97
2019-03-04T07:08:12.981Z,71.76
2019-03-04T07:09:13.645Z,70.86
2019-03-04T07:10:14.152Z,70.69
2019-03-04T07:11:14.893Z,70.71
2019-03-04T07:12:15.411Z,70.19
2019-03-04T07:13:15.948Z,70.55
2019-03-04T07:14:16.754Z,70.54
2019-03-04T07:15:17.428Z,70.09
2019-03-04T07:16:18.093Z,69.98
2019-03-04T07:17:18.653Z,70.12
2019-03-04T07:18:18.776Z,69.99
2019-03-04T07:19:19.376Z,69.62
2019-03-04T07:20:18.724Z,69.31
2019-03-04T07:21:20.038Z,68.85
2019-03-04T07:22:20.595Z,68.04
2019-03-04T07:23:21.140Z,67.94
2019-03-04T07:24:21.273Z,67.88
2019-03-04T07:25:21.940Z,67.92
2019-03-04T07:26:22.654Z,68.53
2019-03-04T07:27:23.038Z,68.75
2019-03-04T07:28:23.604Z,68.27
2019-03-04T07:28:36.201Z,68.79
2019-03-04T07:29:35.834Z,68.86
2019-03-04T07:30:37.642Z,68.84
2019-03-04T07:31:37.748Z,68.98
2019-03-04T07:32:38.282Z,70.57
2019-03-04T07:33:38.974Z,75.37
2019-03-04T07:34:39.426Z,78.96
2019-03-04T07:35:40.169Z,80.94
2019-03-04T07:36:40.845Z,83.22
2019-03-04T07:37:41.333Z,82.32
2019-03-04T07:38:42.039Z,83.08
2019-03-04T07:39:42.838Z,82.78
2019-03-04T07:40:42.978Z,80.32
2019-03-04T07:41:43.747Z,80.58
2019-03-04T07:42:43.459Z,80.85
2019-03-04T07:43:45.128Z,81.16
2019-03-04T07:44:45.891Z,81.86
2019-03-04T07:45:45.517Z,81.94
2019-03-04T07:46:46.683Z,81.04
2019-03-04T07:47:47.485Z,82.75
2019-03-04T07:48:48.008Z,82.14
2019-03-04T07:49:48.463Z,81.81
2019-03-04T07:50:49.131Z,81.59
2019-03-04T07:51:49.666Z,82.18
2019-03-04T07:52:50.305Z,82.18
2019-03-04T07:53:51.262Z,81.55
2019-03-04T07:54:50.904Z,80.42
2019-03-04T07:55:51.680Z,79.68
2019-03-04T07:56:53.260Z,78.89
2019-03-04T07:57:52.827Z,78.43
2019-03-04T07:58:54.779Z,78.87
2019-03-04T07:59:55.009Z,79.26
2019-03-04T08:00:55.703Z,77.92
2019-03-04T08:01:54.765Z,77.60
2019-03-04T08:02:55.500Z,76.41
2019-03-04T08:03:56.108Z,75.80
2019-03-04T08:04:57.654Z,76.26
2019-03-04T08:05:58.198Z,76.60
2019-03-04T08:06:58.707Z,75.87
2019-03-04T08:07:59.297Z,74.29
2019-03-04T08:09:00.236Z,74.48
2019-03-04T08:10:01.008Z,73.68
2019-03-04T08:11:01.242Z,74.26
2019-03-04T08:12:01.400Z,73.33
2019-03-04T08:13:03.028Z,72.73
2019-03-04T08:14:03.623Z,73.20
2019-03-04T08:15:05.146Z,72.97
2019-03-04T08:16:04.457Z,73.05
2019-03-04T08:17:05.072Z,72.66
2019-03-04T08:18:05.938Z,72.29
2019-03-04T08:19:07.420Z,71.84
2019-03-04T08:20:07.400Z,71.75
2019-03-04T08:21:08.201Z,72.33
2019-03-04T08:21:18.719Z,72.58
2019-03-04T08:22:19.852Z,72.58
2019-03-04T08:23:19.182Z,72.75
2019-03-04T08:24:20.596Z,72.60
2019-03-04T08:25:21.274Z,72.67
2019-03-04T08:26:21.323Z,72.90
2019-03-04T08:27:21.899Z,72.95
2019-03-04T08:28:22.648Z,73.07
2019-03-04T08:29:23.432Z,73.13
2019-03-04T08:30:24.305Z,72.39
2019-03-04T08:31:25.064Z,72.99
2019-03-04T08:32:25.603Z,73.42
2019-03-04T08:33:25.932Z,73.55
2019-03-04T08:34:30.930Z,74.05
2019-03-04T08:35:25.653Z,75.51
2019-03-04T08:36:27.249Z,76.76
2019-03-04T08:37:27.510Z,77.37
2019-03-04T08:38:28.019Z,78.10
2019-03-04T08:39:28.683Z,78.79
2019-03-04T08:40:29.185Z,77.65
2019-03-04T08:41:30.770Z,78.84
2019-03-04T08:42:29.746Z,78.57
2019-03-04T08:43:30.230Z,79.26
2019-03-04T08:44:31.205Z,78.94
2019-03-04T08:45:30.356Z,78.90
2019-03-04T08:46:31.317Z,79.22
2019-03-04T08:47:31.927Z,79.29
2019-03-04T08:48:32.733Z,78.59
2019-03-04T08:49:33.425Z,78.63
2019-03-04T08:50:34.187Z,77.91
2019-03-04T08:51:34.856Z,76.20
2019-03-04T08:52:35.621Z,75.90
2019-03-04T08:53:36.240Z,74.87
2019-03-04T08:54:36.758Z,73.50
2019-03-04T08:55:37.533Z,72.71
2019-03-04T08:56:38.151Z,71.97
2019-03-04T08:57:38.814Z,69.89
2019-03-04T08:58:39.648Z,69.24
2019-03-04T08:59:40.281Z,67.79
2019-03-04T09:00:41.149Z,67.34
2019-03-04T09:01:41.313Z,66.55
2019-03-04T09:02:42.199Z,65.49
2019-03-04T09:03:42.718Z,67.30
2019-03-04T09:04:43.262Z,66.78
2019-03-04T09:05:42.901Z,66.44
2019-03-04T09:06:44.774Z,66.18
2019-03-04T09:06:53.826Z,64.84
2019-03-04T09:07:55.532Z,64.74
2019-03-04T09:08:56.143Z,64.18
2019-03-04T09:09:56.877Z,63.68
2019-03-04T09:10:57.498Z,63.20
2019-03-04T09:11:58.007Z,63.46
2019-03-04T09:12:58.016Z,63.84
2019-03-04T09:13:58.999Z,63.44
2019-03-04T09:14:59.489Z,62.16
2019-03-04T09:16:33.693Z,62.21
2019-03-04T09:17:35.262Z,62.28
2019-03-04T09:18:36.150Z,62.30
2019-03-04T09:19:37.036Z,64.22
2019-03-04T09:20:37.779Z,64.20
2019-03-04T09:21:38.426Z,62.97
2019-03-04T09:22:39.133Z,62.65
2019-03-04T09:23:39.123Z,63.03
2019-03-04T09:24:39.900Z,61.43
2019-03-04T09:25:40.856Z,61.68
2019-03-04T09:26:41.607Z,62.63
2019-03-04T09:27:41.215Z,62.80
2019-03-04T09:28:42.507Z,64.08
2019-03-04T09:29:42.779Z,65.33
2019-03-04T09:30:43.364Z,64.93
2019-03-04T09:31:44.145Z,64.60
2019-03-04T09:32:45.060Z,65.18
2019-03-04T09:33:45.592Z,65.03
2019-03-04T09:34:46.410Z,65.07
2019-03-04T09:35:47.391Z,64.36
2019-03-04T09:36:49.082Z,64.22
2019-03-04T09:37:48.872Z,64.42
2019-03-04T09:38:49.602Z,64.74
2019-03-04T09:39:50.190Z,64.50
2019-03-04T09:40:50.863Z,63.77
2019-03-04T09:41:52.557Z,63.45
2019-03-04T09:42:51.136Z,63.59
2019-03-04T09:43:51.769Z,63.37
2019-03-04T09:44:53.230Z,62.26
2019-03-04T09:46:54.366Z,63.34
2019-03-04T09:47:55.980Z,63.16
2019-03-04T09:48:56.705Z,62.38
2019-03-04T09:49:57.263Z,62.94
2019-03-04T09:50:57.918Z,62.70
2019-03-04T09:51:58.651Z,61.80
2019-03-04T09:52:59.516Z,61.94
2019-03-04T09:54:00.162Z,61.39
2019-03-04T09:55:00.863Z,60.58
2019-03-04T09:56:01.669Z,60.96
2019-03-04T09:57:02.294Z,61.14
2019-03-04T09:58:04.165Z,61.21
2019-03-04T09:59:03.948Z,59.62
2019-03-04T10:00:04.604Z,60.12
2019-03-04T10:01:05.160Z,60.46
2019-03-04T10:02:05.643Z,60.32
2019-03-04T10:03:05.815Z,59.18
2019-03-04T10:04:06.508Z,59.44
2019-03-04T10:05:06.317Z,59.68
2019-03-04T10:06:07.489Z,58.62
2019-03-04T10:07:08.234Z,59.65
2019-03-04T10:08:08.861Z,58.92
2019-03-04T10:09:09.504Z,58.67
2019-03-04T10:10:10.082Z,59.25
2019-03-04T10:11:11.081Z,59.52
2019-03-04T10:12:10.765Z,59.67
2019-03-04T10:13:12.616Z,59.34
2019-03-04T10:14:13.237Z,59.42
2019-03-04T10:15:13.862Z,59.60
2019-03-04T10:16:18.770Z,59.33
2019-03-04T10:17:13.991Z,59.04
2019-03-04T10:18:15.668Z,60.67
2019-03-04T10:19:18.698Z,60.87
2019-03-04T10:20:16.390Z,61.62
2019-03-04T10:21:19.996Z,61.98
2019-03-04T10:22:17.310Z,62.30
2019-03-04T10:23:18.015Z,63.39
2019-03-04T10:24:19.100Z,64.33
2019-03-04T10:25:18.878Z,64.52
2019-03-04T10:26:22.951Z,65.18
2019-03-04T10:27:19.266Z,65.25
2019-03-04T10:28:20.981Z,66.19
2019-03-04T10:29:22.807Z,66.12
2019-03-04T10:29:31.411Z,66.48
2019-03-04T10:30:32.867Z,66.45
2019-03-04T10:31:33.404Z,64.94
2019-03-04T10:32:34.355Z,65.87
2019-03-04T10:33:34.853Z,66.65
2019-03-04T10:34:35.411Z,66.79
2019-03-04T10:35:36.301Z,66.20
2019-03-04T10:36:35.765Z,66.70
2019-03-04T10:37:37.474Z,66.70
2019-03-04T10:38:38.275Z,67.10
2019-03-04T10:39:38.945Z,66.61
2019-03-04T10:40:39.499Z,66.32
2019-03-04T10:41:40.062Z,65.92
2019-03-04T10:42:40.714Z,65.69
2019-03-04T10:43:41.404Z,66.32
2019-03-04T10:44:42.100Z,65.47
2019-03-04T10:45:41.867Z,65.87
2019-03-04T10:46:44.663Z,64.88
2019-03-04T10:47:43.192Z,64.94
2019-03-04T10:48:44.949Z,65.37
2019-03-04T10:49:44.478Z,65.38
2019-03-04T10:50:46.147Z,65.40
2019-03-04T10:51:46.663Z,65.84
2019-03-04T10:52:47.179Z,65.13
2019-03-04T10:53:47.664Z,64.71
2019-03-04T10:54:48.246Z,64.96
2019-03-04T10:55:49.028Z,64.95
2019-03-04T10:56:49.559Z,64.14
2019-03-04T10:57:50.228Z,64.89
2019-03-04T10:58:50.636Z,64.64
2019-03-04T10:59:51.310Z,64.53
2019-03-04T11:00:51.208Z,63.93
2019-03-04T11:01:52.774Z,63.66
2019-03-04T11:02:53.379Z,64.10
2019-03-04T11:03:54.144Z,63.79
2019-03-04T11:04:54.635Z,63.23
2019-03-04T11:05:54.824Z,63.19
2019-03-04T11:06:55.469Z,63.45
2019-03-04T11:07:55.110Z,63.34
2019-03-04T11:08:56.745Z,63.30
2019-03-04T11:09:57.315Z,62.89
2019-03-04T11:10:58.175Z,63.26
2019-03-04T11:11:58.799Z,63.44
2019-03-04T11:12:59.625Z,63.42
2019-03-04T11:13:59.655Z,62.90
2019-03-04T11:14:59.189Z,62.70
2019-03-04T11:16:00.755Z,62.18
2019-03-04T11:17:01.393Z,62.51
2019-03-04T11:17:09.927Z,62.32
2019-03-04T11:18:12.090Z,62.31
2019-03-04T11:19:11.683Z,62.62
2019-03-04T11:20:12.421Z,62.97
2019-03-04T11:21:13.209Z,62.98
2019-03-04T11:22:12.922Z,63.30
2019-03-04T11:23:15.083Z,63.86
2019-03-04T11:24:13.525Z,64.10
2019-03-04T11:25:14.986Z,64.25
2019-03-04T11:26:15.325Z,64.52
2019-03-04T11:27:17.121Z,65.71
2019-03-04T11:28:17.061Z,66.25
2019-03-04T11:29:17.657Z,67.17
2019-03-04T11:30:17.674Z,67.60
2019-03-04T11:31:18.199Z,68.20
2019-03-04T11:32:19.054Z,68.96
2019-03-04T11:33:19.599Z,70.97
2019-03-04T11:34:20.373Z,72.59
2019-03-04T11:35:20.465Z,73.17
2019-03-04T11:36:19.960Z,74.88
2019-03-04T11:37:21.535Z,76.78
2019-03-04T11:38:22.172Z,78.71
2019-03-04T11:39:22.668Z,78.27
2019-03-04T11:40:23.185Z,81.15
2019-03-04T11:41:23.936Z,80.91
2019-03-04T11:42:24.505Z,81.56
2019-03-04T11:43:24.127Z,82.55
2019-03-04T11:44:25.762Z,84.07
2019-03-04T11:45:26.505Z,84.50
2019-03-04T11:46:27.105Z,83.99
2019-03-04T11:47:27.705Z,84.20
2019-03-04T11:48:28.322Z,83.45
2019-03-04T11:49:28.492Z,84.18
2019-03-04T11:50:29.037Z,83.78
2019-03-04T11:51:30.061Z,83.05
2019-03-04T11:52:30.652Z,84.29
2019-03-04T11:53:31.326Z,84.55
2019-03-04T11:54:31.615Z,85.28
2019-03-04T11:55:32.158Z,85.62
2019-03-04T11:56:32.815Z,87.07
2019-03-04T11:57:33.446Z,88.23
2019-03-04T11:58:34.132Z,88.59
2019-03-04T11:59:34.843Z,87.27
2019-03-04T12:00:35.705Z,87.80
2019-03-04T12:01:36.624Z,87.05
2019-03-04T12:02:39.211Z,87.89
2019-03-04T12:03:36.288Z,88.42
2019-03-04T12:04:37.291Z,87.34
2019-03-04T12:05:38.069Z,85.70
2019-03-04T12:05:46.595Z,84.71
2019-03-04T12:06:48.357Z,85.15
2019-03-04T12:07:48.926Z,84.84
2019-03-04T12:08:49.762Z,83.34
2019-03-04T12:09:50.491Z,82.86
2019-03-04T12:10:51.046Z,81.66
2019-03-04T12:11:51.646Z,83.00
2019-03-04T12:12:52.333Z,83.41
2019-03-04T12:13:52.989Z,81.63
2019-03-04T12:14:53.955Z,80.53
2019-03-04T12:15:54.644Z,80.56
2019-03-04T12:16:55.506Z,79.62
2019-03-04T12:17:56.057Z,81.02
2019-03-04T12:18:56.708Z,80.88
2019-03-04T12:19:57.337Z,80.81
2019-03-04T12:20:58.925Z,81.70
2019-03-04T12:21:57.682Z,81.67
2019-03-04T12:22:59.332Z,80.33
2019-03-04T12:24:00.067Z,81.08
2019-03-04T12:25:00.715Z,79.68
2019-03-04T12:26:01.368Z,79.47
2019-03-04T12:27:01.950Z,78.88
2019-03-04T12:28:02.656Z,78.18
2019-03-04T12:29:03.271Z,77.11
2019-03-04T12:30:03.960Z,77.33
2019-03-04T12:31:04.785Z,78.29
2019-03-04T12:32:05.507Z,76.24
2019-03-04T12:33:06.324Z,76.41
2019-03-04T12:34:05.727Z,75.89
2019-03-04T12:35:07.281Z,75.55
2019-03-04T12:36:07.865Z,75.00
2019-03-04T12:37:08.444Z,74.76
2019-03-04T12:38:09.080Z,75.32
2019-03-04T12:39:10.006Z,75.51
2019-03-04T12:40:10.607Z,76.59
2019-03-04T12:41:10.715Z,76.68
2019-03-04T12:42:11.456Z,76.16
2019-03-04T12:43:12.001Z,77.59
2019-03-04T12:44:12.688Z,76.73
2019-03-04T12:45:13.241Z,78.12
2019-03-04T12:46:13.720Z,77.54
2019-03-04T12:47:16.336Z,77.40
2019-03-04T12:48:13.695Z,77.87
2019-03-04T12:49:15.467Z,78.46